createdAt,value
2018-11-05T00:01:05.645Z,100576.20
2018-11-05T00:03:33.931Z,100569.91
2018-11-05T00:06:02.398Z,100577.67
2018-11-05T00:08:30.664Z,100574.84
2018-11-05T00:10:58.940Z,100569.66
2018-11-05T00:13:27.217Z,100574.29
2018-11-05T00:15:56.039Z,100566.12
2018-11-05T00:18:24.345Z,100573.05
2018-11-05T00:20:52.625Z,100561.91
2018-11-05T00:23:20.941Z,100555.39
2018-11-05T00:25:49.196Z,100549.11
2018-11-05T00:28:17.592Z,100541.51
2018-11-05T00:30:45.881Z,100544.86
2018-11-05T00:33:14.169Z,100545.73
2018-11-05T00:35:42.451Z,100546.45
2018-11-05T00:38:10.832Z,100536.93
2018-11-05T00:40:39.149Z,100536.35
2018-11-05T00:43:07.451Z,100528.52
2018-11-05T00:45:35.795Z,100521.26
2018-11-05T00:48:04.001Z,100528.86
2018-11-05T00:50:32.310Z,100514.98
2018-11-05T00:53:00.584Z,100505.11
2018-11-05T00:55:28.869Z,100514.62
2018-11-05T00:57:57.180Z,100521.95
2018-11-05T01:00:25.440Z,100508.97
2018-11-05T01:02:53.801Z,100510.62
2018-11-05T01:05:22.103Z,100509.20
2018-11-05T01:07:50.391Z,100504.06
2018-11-05T01:10:18.667Z,100501.54
2018-11-05T01:12:46.972Z,100496.97
2018-11-05T01:15:17.360Z,100490.50
2018-11-05T01:17:45.723Z,100487.94
2018-11-05T01:20:15.043Z,100479.27
2018-11-05T01:22:43.318Z,100478.81
2018-11-05T01:25:11.700Z,100480.66
2018-11-05T01:27:40.042Z,100478.89
2018-11-05T01:30:15.977Z,100486.15
2018-11-05T01:32:44.281Z,100485.44
2018-11-05T01:35:13.515Z,100488.05
2018-11-05T01:37:41.987Z,100469.06
2018-11-05T01:40:12.627Z,100470.48
2018-11-05T01:42:40.995Z,100476.19
2018-11-05T01:45:10.625Z,100475.23
2018-11-05T01:47:39.148Z,100468.20
2018-11-05T01:50:08.911Z,100470.37
2018-11-05T01:52:37.210Z,100463.44
2018-11-05T01:55:06.327Z,100466.36
2018-11-05T01:57:34.632Z,100473.81
2018-11-05T02:00:02.936Z,100465.85
2018-11-05T02:02:31.219Z,100474.63
2018-11-05T02:04:59.537Z,100467.53
2018-11-05T02:07:27.820Z,100469.66
2018-11-05T02:09:56.109Z,100464.55
2018-11-05T02:12:24.363Z,100456.89
2018-11-05T02:14:52.647Z,100455.70
2018-11-05T02:17:21.128Z,100449.58
2018-11-05T02:19:49.912Z,100453.27
2018-11-05T02:22:18.199Z,100444.12
2018-11-05T02:24:46.478Z,100445.17
2018-11-05T02:27:14.843Z,100434.70
2018-11-05T02:29:43.088Z,100421.62
2018-11-05T02:32:11.352Z,100411.30
2018-11-05T02:34:39.700Z,100405.09
2018-11-05T02:37:08.028Z,100399.05
2018-11-05T02:39:36.327Z,100404.76
2018-11-05T02:42:04.794Z,100405.98
2018-11-05T02:44:33.073Z,100402.18
2018-11-05T02:47:01.362Z,100406.02
2018-11-05T02:49:29.611Z,100412.23
2018-11-05T02:51:57.937Z,100416.48
2018-11-05T02:54:26.192Z,100417.45
2018-11-05T02:56:54.509Z,100410.36
2018-11-05T02:59:22.786Z,100411.69
2018-11-05T03:01:51.261Z,100408.17
2018-11-05T03:04:19.523Z,100409.25
2018-11-05T03:06:47.846Z,100410.16
2018-11-05T03:09:16.139Z,100406.58
2018-11-05T03:11:44.499Z,100405.64
2018-11-05T03:14:12.763Z,100408.48
2018-11-05T03:16:41.074Z,100408.81
2018-11-05T03:19:09.423Z,100407.73
2018-11-05T03:21:37.705Z,100410.55
2018-11-05T03:24:06.029Z,100409.47
2018-11-05T03:26:35.214Z,100410.17
2018-11-05T03:29:03.517Z,100419.67
2018-11-05T03:31:31.816Z,100410.66
2018-11-05T03:34:00.140Z,100408.30
2018-11-05T03:36:28.416Z,100411.77
2018-11-05T03:38:56.729Z,100403.36
2018-11-05T03:41:24.980Z,100406.69
2018-11-05T03:43:53.240Z,100420.11
2018-11-05T03:46:21.532Z,100428.44
2018-11-05T03:48:49.806Z,100423.95
2018-11-05T03:51:18.225Z,100414.91
2018-11-05T03:53:46.486Z,100404.25
2018-11-05T03:56:14.805Z,100403.77
2018-11-05T03:58:43.090Z,100397.23
2018-11-05T04:01:11.386Z,100388.56
2018-11-05T04:03:39.692Z,100392.94
2018-11-05T04:06:07.975Z,100385.09
2018-11-05T04:08:36.378Z,100382.95
2018-11-05T04:11:05.198Z,100377.53
2018-11-05T04:13:33.452Z,100376.83
2018-11-05T04:16:01.997Z,100370.14
2018-11-05T04:18:30.368Z,100364.31
2018-11-05T04:20:58.657Z,100362.18
2018-11-05T04:23:26.954Z,100362.86
2018-11-05T04:25:55.220Z,100362.97
2018-11-05T04:28:23.536Z,100363.30
2018-11-05T04:30:51.821Z,100358.78
2018-11-05T04:33:20.076Z,100368.95
2018-11-05T04:35:48.374Z,100369.66
2018-11-05T04:38:16.628Z,100379.53
2018-11-05T04:40:45.046Z,100378.22
2018-11-05T04:43:13.378Z,100372.84
2018-11-05T04:45:41.688Z,100368.58
2018-11-05T04:48:09.941Z,100373.81
2018-11-05T04:50:38.244Z,100366.08
2018-11-05T04:53:06.667Z,100372.16
2018-11-05T04:55:34.943Z,100378.56
2018-11-05T04:58:03.212Z,100369.74
2018-11-05T05:00:31.494Z,100363.34
2018-11-05T05:02:59.783Z,100370.71
2018-11-05T05:05:28.063Z,100366.56
2018-11-05T05:07:56.328Z,100369.18
2018-11-05T05:10:24.636Z,100375.12
2018-11-05T05:12:52.909Z,100379.72
2018-11-05T05:15:21.169Z,100382.90
2018-11-05T05:17:49.428Z,100382.78
2018-11-05T05:20:17.767Z,100384.91
2018-11-05T05:22:46.216Z,100378.86
2018-11-05T05:25:14.550Z,100383.00
2018-11-05T05:27:42.858Z,100378.94
2018-11-05T05:30:14.168Z,100378.11
2018-11-05T05:32:43.232Z,100367.80
2018-11-05T05:35:11.500Z,100374.67
2018-11-05T05:37:40.025Z,100371.57
2018-11-05T05:40:08.651Z,100369.66
2018-11-05T05:42:37.292Z,100373.44
2018-11-05T05:45:06.600Z,100367.38
2018-11-05T05:47:34.898Z,100369.85
2018-11-05T05:50:03.571Z,100371.05
2018-11-05T05:52:31.839Z,100377.44
2018-11-05T05:55:00.147Z,100377.33
2018-11-05T05:57:28.418Z,100381.92
2018-11-05T05:59:57.130Z,100377.52
2018-11-05T06:02:25.342Z,100383.45
2018-11-05T06:04:53.603Z,100387.94
2018-11-05T06:07:21.885Z,100389.80
2018-11-05T06:09:50.170Z,100383.63
2018-11-05T06:12:18.452Z,100380.16
2018-11-05T06:14:46.820Z,100374.33
2018-11-05T06:17:15.075Z,100372.53
2018-11-05T06:19:43.435Z,100368.48
2018-11-05T06:22:11.691Z,100357.65
2018-11-05T06:24:40.027Z,100363.25
2018-11-05T06:27:08.308Z,100363.59
2018-11-05T06:29:36.586Z,100359.52
2018-11-05T06:32:05.225Z,100355.80
2018-11-05T06:34:33.473Z,100362.69
2018-11-05T06:37:01.869Z,100363.05
2018-11-05T06:39:30.130Z,100371.09
2018-11-05T06:41:58.439Z,100368.36
2018-11-05T06:44:26.731Z,100368.58
2018-11-05T06:46:55.008Z,100381.03
2018-11-05T06:49:23.276Z,100382.08
2018-11-05T06:51:51.523Z,100390.48
2018-11-05T06:54:20.016Z,100389.61
2018-11-05T06:56:48.311Z,100394.09
2018-11-05T06:59:16.613Z,100392.52
2018-11-05T07:01:44.903Z,100391.76
2018-11-05T07:04:13.263Z,100394.66
2018-11-05T07:06:41.627Z,100395.06
2018-11-05T07:09:10.954Z,100394.67
2018-11-05T07:11:39.761Z,100392.45
2018-11-05T07:14:08.232Z,100394.80
2018-11-05T07:16:36.727Z,100395.34
2018-11-05T07:19:05.629Z,100393.98
2018-11-05T07:21:33.880Z,100393.89
2018-11-05T07:24:02.199Z,100398.73
2018-11-05T07:26:30.477Z,100398.18
2018-11-05T07:28:58.781Z,100400.22
2018-11-05T07:31:27.077Z,100403.11
2018-11-05T07:33:55.510Z,100395.78
2018-11-05T07:36:23.667Z,100403.73
2018-11-05T07:38:51.977Z,100399.80
2018-11-05T07:41:20.280Z,100404.28
2018-11-05T07:43:48.576Z,100400.34
2018-11-05T07:46:16.903Z,100404.95
2018-11-05T07:48:45.197Z,100406.75
2018-11-05T07:51:13.481Z,100398.22
2018-11-05T07:53:41.718Z,100392.97
2018-11-05T07:56:10.022Z,100403.59
2018-11-05T07:58:38.306Z,100412.38
2018-11-05T08:01:07.907Z,100419.05
2018-11-05T08:03:36.151Z,100417.23
2018-11-05T08:06:04.462Z,100420.72
2018-11-05T08:08:32.856Z,100428.99
2018-11-05T08:11:01.024Z,100426.19
2018-11-05T08:13:29.327Z,100420.53
2018-11-05T08:15:57.768Z,100412.20
2018-11-05T08:18:26.048Z,100396.75
2018-11-05T08:20:54.317Z,100398.36
2018-11-05T08:23:22.623Z,100391.05
2018-11-05T08:25:50.920Z,100376.45
2018-11-05T08:28:19.216Z,100385.31
2018-11-05T08:30:47.558Z,100360.24
2018-11-05T08:33:16.104Z,100350.72
2018-11-05T08:35:44.557Z,100358.11
2018-11-05T08:38:12.862Z,100349.09
2018-11-05T08:40:41.216Z,100370.78
2018-11-05T08:43:09.540Z,100372.50
2018-11-05T08:45:37.818Z,100355.67
2018-11-05T08:48:06.140Z,100361.52
2018-11-05T08:50:34.509Z,100363.73
2018-11-05T08:53:02.778Z,100354.46
2018-11-05T08:55:31.063Z,100358.45
2018-11-05T08:57:59.362Z,100352.95
2018-11-05T09:00:33.008Z,100357.22
2018-11-05T09:03:01.262Z,100369.93
2018-11-05T09:05:29.535Z,100364.85
2018-11-05T09:07:57.878Z,100353.28
2018-11-05T09:10:26.368Z,100341.83
2018-11-05T09:12:54.706Z,100342.19
2018-11-05T09:15:23.422Z,100329.47
2018-11-05T09:17:51.912Z,100320.15
2018-11-05T09:20:20.670Z,100326.09
2018-11-05T09:22:49.782Z,100325.63
2018-11-05T09:25:18.263Z,100325.11
2018-11-05T09:27:46.736Z,100327.95
2018-11-05T09:30:17.591Z,100337.63
2018-11-05T09:32:46.355Z,100339.48
2018-11-05T09:35:14.651Z,100335.67
2018-11-05T09:37:42.935Z,100340.35
2018-11-05T09:40:13.939Z,100348.81
2018-11-05T09:42:42.806Z,100358.82
2018-11-05T09:45:15.843Z,100358.20
2018-11-05T09:47:44.831Z,100359.42
2018-11-05T09:50:13.412Z,100344.49
2018-11-05T09:52:41.689Z,100333.73
2018-11-05T09:55:11.089Z,100332.16
2018-11-05T09:57:39.631Z,100335.12
2018-11-05T10:00:10.475Z,100324.48
2018-11-05T10:02:44.102Z,100318.80
2018-11-05T10:05:13.236Z,100325.39
2018-11-05T10:07:41.371Z,100316.17
2018-11-05T10:10:10.810Z,100325.59
2018-11-05T10:12:39.467Z,100324.71
2018-11-05T10:15:08.711Z,100318.94
2018-11-05T10:17:37.665Z,100320.34
2018-11-05T10:20:08.012Z,100320.21
2018-11-05T10:22:36.718Z,100314.96
2018-11-05T10:25:06.512Z,100315.81
2018-11-05T10:27:34.866Z,100324.91
2018-11-05T10:30:03.142Z,100317.09
2018-11-05T10:32:31.480Z,100307.52
2018-11-05T10:34:59.904Z,100311.55
2018-11-05T10:37:28.326Z,100320.33
2018-11-05T10:39:56.637Z,100303.30
2018-11-05T10:42:24.919Z,100310.44
2018-11-05T10:44:53.222Z,100308.33
2018-11-05T10:47:21.520Z,100308.02
2018-11-05T10:49:49.824Z,100310.86
2018-11-05T10:52:18.154Z,100302.33
2018-11-05T10:54:46.376Z,100303.22
2018-11-05T10:57:14.675Z,100298.34
2018-11-05T10:59:42.963Z,100294.42
2018-11-05T11:02:16.484Z,100293.63
2018-11-05T11:04:44.823Z,100288.11
2018-11-05T11:07:13.496Z,100278.59
2018-11-05T11:09:42.245Z,100292.93
2018-11-05T11:12:10.441Z,100290.48
2018-11-05T11:14:38.733Z,100277.50
2018-11-05T11:17:06.984Z,100276.87
2018-11-05T11:19:35.277Z,100272.11
2018-11-05T11:22:03.577Z,100271.30
2018-11-05T11:24:31.855Z,100264.89
2018-11-05T11:27:00.167Z,100269.70
2018-11-05T11:29:28.602Z,100259.84
2018-11-05T11:31:56.739Z,100265.75
2018-11-05T11:34:25.028Z,100269.38
2018-11-05T11:36:53.303Z,100271.86
2018-11-05T11:39:21.562Z,100280.44
2018-11-05T11:41:49.849Z,100273.52
2018-11-05T11:44:18.270Z,100270.55
2018-11-05T11:46:46.506Z,100260.51
2018-11-05T11:49:14.803Z,100261.17
2018-11-05T11:51:43.088Z,100256.72
2018-11-05T11:54:11.622Z,100251.94
2018-11-05T11:56:40.016Z,100252.92
2018-11-05T11:59:08.307Z,100246.64
2018-11-05T12:01:42.055Z,100246.31
2018-11-05T12:04:10.335Z,100251.76
2018-11-05T12:06:38.654Z,100246.16
2018-11-05T12:09:07.816Z,100233.95
2018-11-05T12:11:36.205Z,100237.41
2018-11-05T12:14:04.649Z,100230.80
2018-11-05T12:16:32.895Z,100217.61
2018-11-05T12:19:01.234Z,100224.34
2018-11-05T12:21:29.524Z,100221.70
2018-11-05T12:23:57.806Z,100216.41
2018-11-05T12:26:26.044Z,100207.00
2018-11-05T12:28:54.302Z,100210.64
2018-11-05T12:31:22.590Z,100212.12
2018-11-05T12:33:50.889Z,100207.48
2018-11-05T12:36:19.180Z,100213.08
2018-11-05T12:38:47.588Z,100216.03
2018-11-05T12:41:15.819Z,100222.67
2018-11-05T12:43:44.242Z,100219.84
2018-11-05T12:46:12.584Z,100216.05
2018-11-05T12:48:40.886Z,100208.27
2018-11-05T12:51:09.145Z,100204.45
2018-11-05T12:53:37.430Z,100194.16
2018-11-05T12:56:05.743Z,100185.89
2018-11-05T12:58:34.028Z,100191.27
2018-11-05T13:01:02.348Z,100195.08
2018-11-05T13:03:31.023Z,100191.78
2018-11-05T13:05:59.303Z,100186.63
2018-11-05T13:08:27.818Z,100186.97
2018-11-05T13:10:56.255Z,100181.84
2018-11-05T13:13:24.556Z,100172.76
2018-11-05T13:15:53.035Z,100174.36
2018-11-05T13:18:21.332Z,100174.70
2018-11-05T13:20:49.743Z,100164.48
2018-11-05T13:23:23.425Z,100166.28
2018-11-05T13:25:51.712Z,100163.60
2018-11-05T13:28:19.994Z,100168.22
2018-11-05T13:30:48.395Z,100164.27
2018-11-05T13:33:16.774Z,100167.91
2018-11-05T13:35:45.080Z,100163.13
2018-11-05T13:38:14.195Z,100156.72
2018-11-05T13:40:41.763Z,100148.64
2018-11-05T13:43:10.035Z,100163.33
2018-11-05T13:45:38.513Z,100161.69
2018-11-05T13:48:07.128Z,100153.11
2018-11-05T13:50:35.120Z,100153.61
2018-11-05T13:53:03.420Z,100140.91
2018-11-05T13:55:31.706Z,100134.63
2018-11-05T13:58:00.004Z,100135.95
2018-11-05T14:00:28.252Z,100145.19
2018-11-05T14:02:56.502Z,100130.66
2018-11-05T14:05:24.856Z,100124.41
2018-11-05T14:07:53.207Z,100123.25
2018-11-05T14:10:22.095Z,100122.27
2018-11-05T14:12:50.842Z,100128.69
2018-11-05T14:15:19.324Z,100112.53
2018-11-05T14:17:47.789Z,100105.58
2018-11-05T14:20:17.402Z,100108.73
2018-11-05T14:22:45.700Z,100114.82
2018-11-05T14:25:15.280Z,100113.50
2018-11-05T14:27:44.907Z,100110.05
2018-11-05T14:30:13.685Z,100119.16
2018-11-05T14:32:43.224Z,100113.73
2018-11-05T14:35:11.656Z,100118.82
2018-11-05T14:37:40.182Z,100124.13
2018-11-05T14:40:10.269Z,100108.02
2018-11-05T14:42:38.658Z,100106.54
2018-11-05T14:45:08.755Z,100110.34
2018-11-05T14:47:37.047Z,100108.72
2018-11-05T14:50:06.919Z,100104.79
2018-11-05T14:52:35.508Z,100102.02
2018-11-05T14:55:03.848Z,100089.67
2018-11-05T14:57:32.159Z,100088.39
2018-11-05T15:00:00.482Z,100083.64
2018-11-05T15:02:34.087Z,100081.32
2018-11-05T15:05:02.393Z,100081.16
2018-11-05T15:07:30.738Z,100078.55
2018-11-05T15:09:59.051Z,100089.45
2018-11-05T15:12:27.336Z,100091.30
2018-11-05T15:14:55.607Z,100095.25
2018-11-05T15:17:23.990Z,100092.48
2018-11-05T15:19:52.566Z,100085.88
2018-11-05T15:22:20.594Z,100085.91
2018-11-05T15:24:48.922Z,100086.94
2018-11-05T15:27:17.190Z,100085.45
2018-11-05T15:29:45.641Z,100085.98
2018-11-05T15:32:14.042Z,100087.31
2018-11-05T15:34:42.355Z,100079.58
2018-11-05T15:37:10.621Z,100076.31
2018-11-05T15:39:38.992Z,100083.55
2018-11-05T15:42:07.411Z,100087.51
2018-11-05T15:44:35.720Z,100097.73
2018-11-05T15:47:04.046Z,100096.59
2018-11-05T15:49:32.996Z,100096.45
2018-11-05T15:52:02.366Z,100096.83
2018-11-05T15:54:30.583Z,100085.97
2018-11-05T15:56:58.678Z,100093.05
2018-11-05T15:59:26.944Z,100098.17
2018-11-05T16:01:55.238Z,100101.78
2018-11-05T16:04:23.594Z,100099.81
2018-11-05T16:06:51.821Z,100096.55
2018-11-05T16:09:20.170Z,100089.95
2018-11-05T16:11:48.500Z,100096.54
2018-11-05T16:14:16.741Z,100091.60
2018-11-05T16:16:45.076Z,100082.05
2018-11-05T16:19:13.370Z,100087.81
2018-11-05T16:21:41.642Z,100099.16
2018-11-05T16:24:10.221Z,100095.70
2018-11-05T16:26:38.488Z,100105.42
2018-11-05T16:29:06.749Z,100112.81
2018-11-05T16:31:35.043Z,100117.76
2018-11-05T16:34:03.313Z,100122.70
2018-11-05T16:36:31.589Z,100120.22
2018-11-05T16:38:59.997Z,100122.17
2018-11-05T16:41:28.290Z,100113.81
2018-11-05T16:43:56.579Z,100117.27
2018-11-05T16:46:24.860Z,100117.88
2018-11-05T16:48:53.138Z,100114.42
2018-11-05T16:51:21.446Z,100122.49
2018-11-05T16:53:49.749Z,100114.42
2018-11-05T16:56:18.019Z,100112.44
2018-11-05T16:58:46.302Z,100117.88
2018-11-05T17:01:14.970Z,100123.14
2018-11-05T17:03:43.246Z,100127.09
2018-11-05T17:06:11.619Z,100123.28
2018-11-05T17:08:39.898Z,100126.41
2018-11-05T17:11:08.573Z,100124.78
2018-11-05T17:13:36.961Z,100124.78
2018-11-05T17:16:05.885Z,100127.91
2018-11-05T17:18:34.188Z,100127.91
2018-11-05T17:21:02.535Z,100128.72
2018-11-05T17:23:30.883Z,100127.09
2018-11-05T17:25:59.186Z,100127.23
2018-11-05T17:28:27.492Z,100116.53
2018-11-05T17:30:55.813Z,100113.75
2018-11-05T17:33:26.633Z,100112.27
2018-11-05T17:35:55.002Z,100105.50
2018-11-05T17:38:23.640Z,100109.27
2018-11-05T17:40:52.589Z,100106.50
2018-11-05T17:43:21.127Z,100112.08
2018-11-05T17:45:49.611Z,100110.94
2018-11-05T17:48:17.919Z,100105.19
2018-11-05T17:50:47.364Z,100112.09
2018-11-05T17:53:15.620Z,100106.33
2018-11-05T17:55:43.954Z,100098.75
2018-11-05T17:58:12.378Z,100093.98
2018-11-05T18:00:40.680Z,100097.58
2018-11-05T18:03:08.982Z,100094.45
2018-11-05T18:05:37.253Z,100087.55
2018-11-05T18:08:05.616Z,100084.59
2018-11-05T18:10:33.900Z,100080.97
2018-11-05T18:13:02.340Z,100074.55
2018-11-05T18:15:30.813Z,100070.59
2018-11-05T18:17:59.484Z,100073.89
2018-11-05T18:20:27.784Z,100073.05
2018-11-05T18:22:56.075Z,100086.51
2018-11-05T18:25:24.356Z,100081.61
2018-11-05T18:27:52.677Z,100089.49
2018-11-05T18:30:20.970Z,100087.36
2018-11-05T18:32:49.231Z,100084.73
2018-11-05T18:35:17.687Z,100082.92
2018-11-05T18:37:48.023Z,100082.75
2018-11-05T18:40:16.561Z,100076.67
2018-11-05T18:42:45.092Z,100074.67
2018-11-05T18:45:13.627Z,100072.72
2018-11-05T18:47:42.231Z,100065.15
2018-11-05T18:50:12.260Z,100069.41
2018-11-05T18:52:40.670Z,100062.66
2018-11-05T18:55:10.284Z,100065.78
2018-11-05T18:57:38.762Z,100062.52
2018-11-05T19:00:15.560Z,100063.83
2018-11-05T19:05:27.266Z,100079.43
2018-11-05T19:07:55.551Z,100077.30
2018-11-05T19:10:23.859Z,100076.16
2018-11-05T19:12:52.894Z,100079.92
2018-11-05T19:15:21.351Z,100090.30
2018-11-05T19:17:50.215Z,100091.44
2018-11-05T19:20:18.727Z,100096.38
2018-11-05T19:22:47.332Z,100086.36
2018-11-05T19:25:16.325Z,100084.19
2018-11-05T19:27:44.625Z,100079.78
2018-11-05T19:30:16.486Z,100081.23
2018-11-05T19:32:45.219Z,100084.04
2018-11-05T19:35:13.619Z,100086.98
2018-11-05T19:37:42.527Z,100079.42
2018-11-05T19:40:12.011Z,100081.23
2018-11-05T19:42:41.515Z,100084.00
2018-11-05T19:45:11.267Z,100088.44
2018-11-05T19:47:39.834Z,100088.25
2018-11-05T19:50:10.573Z,100087.75
2018-11-05T19:52:39.087Z,100080.36
2018-11-05T19:55:08.332Z,100088.10
2018-11-05T19:57:37.122Z,100090.73
2018-11-05T20:00:07.648Z,100088.24
2018-11-05T20:02:35.875Z,100088.41
2018-11-05T20:05:04.129Z,100085.44
2018-11-05T20:07:32.423Z,100082.66
2018-11-05T20:10:00.711Z,100082.61
2018-11-05T20:12:29.092Z,100082.92
2018-11-05T20:14:57.407Z,100083.59
2018-11-05T20:17:25.684Z,100077.66
2018-11-05T20:19:53.948Z,100077.52
2018-11-05T20:22:22.316Z,100078.52
2018-11-05T20:24:50.579Z,100078.98
2018-11-05T20:27:18.873Z,100075.54
2018-11-05T20:29:47.278Z,100082.77
2018-11-05T20:32:15.842Z,100090.66
2018-11-05T20:34:43.846Z,100080.97
2018-11-05T20:37:12.123Z,100075.40
2018-11-05T20:39:40.436Z,100075.72
2018-11-05T20:42:08.710Z,100079.34
2018-11-05T20:44:37.015Z,100076.36
2018-11-05T20:47:05.886Z,100076.05
2018-11-05T20:49:34.300Z,100077.85
2018-11-05T20:52:02.595Z,100076.85
2018-11-05T20:54:30.882Z,100080.64
2018-11-05T20:56:59.164Z,100078.33
2018-11-05T20:59:27.420Z,100080.27
2018-11-05T21:01:55.742Z,100073.03
2018-11-05T21:04:24.044Z,100072.06
2018-11-05T21:06:52.358Z,100081.76
2018-11-05T21:09:20.639Z,100082.08
2018-11-05T21:11:48.961Z,100086.20
2018-11-05T21:14:17.268Z,100088.48
2018-11-05T21:16:45.560Z,100086.52
2018-11-05T21:19:13.973Z,100089.95
2018-11-05T21:21:42.455Z,100090.09
2018-11-05T21:24:10.540Z,100092.89
2018-11-05T21:26:38.780Z,100092.52
2018-11-05T21:29:07.107Z,100094.64
2018-11-05T21:31:35.367Z,100082.83
2018-11-05T21:34:03.722Z,100079.08
2018-11-05T21:36:32.027Z,100073.19
2018-11-05T21:39:00.356Z,100066.62
2018-11-05T21:41:28.650Z,100071.05
2018-11-05T21:43:56.933Z,100072.02
2018-11-05T21:46:25.292Z,100067.25
2018-11-05T21:48:53.571Z,100059.19
2018-11-05T21:51:21.899Z,100053.09
2018-11-05T21:53:50.179Z,100049.44
2018-11-05T21:56:18.478Z,100061.22
2018-11-05T21:58:46.767Z,100065.16
2018-11-05T22:01:15.043Z,100059.78
2018-11-05T22:03:43.345Z,100058.97
2018-11-05T22:06:11.627Z,100063.42
2018-11-05T22:08:39.942Z,100058.19
2018-11-05T22:11:08.231Z,100072.32
2018-11-05T22:13:36.680Z,100067.56
2018-11-05T22:16:04.973Z,100065.43
2018-11-05T22:18:33.266Z,100060.36
2018-11-05T22:21:01.556Z,100049.36
2018-11-05T22:23:30.009Z,100056.74
2018-11-05T22:25:58.323Z,100051.48
2018-11-05T22:28:26.630Z,100049.03
2018-11-05T22:30:54.923Z,100049.67
2018-11-05T22:33:23.239Z,100053.28
2018-11-05T22:35:51.567Z,100064.80
2018-11-05T22:38:20.027Z,100064.13
2018-11-05T22:40:48.173Z,100056.74
2018-11-05T22:43:16.586Z,100053.63
2018-11-05T22:45:44.900Z,100057.23
2018-11-05T22:48:13.204Z,100058.72
2018-11-05T22:50:41.516Z,100059.55
2018-11-05T22:53:09.758Z,100056.41
2018-11-05T22:55:38.051Z,100050.65
2018-11-05T22:58:06.901Z,100048.16
2018-11-05T23:00:40.551Z,100045.70
2018-11-05T23:03:14.031Z,100050.91
2018-11-05T23:05:42.342Z,100058.59
2018-11-05T23:08:10.643Z,100051.38
2018-11-05T23:10:38.899Z,100043.82
2018-11-05T23:13:07.156Z,100039.74
2018-11-05T23:15:35.459Z,100041.88
2018-11-05T23:18:03.760Z,100042.19
2018-11-05T23:20:32.044Z,100042.00
2018-11-05T23:23:00.292Z,100037.41
2018-11-05T23:25:28.618Z,100044.93
2018-11-05T23:27:57.023Z,100043.48
2018-11-05T23:30:25.297Z,100047.25
2018-11-05T23:32:53.663Z,100053.48
2018-11-05T23:35:21.932Z,100049.38
2018-11-05T23:37:50.307Z,100053.51
2018-11-05T23:40:18.704Z,100050.70
2018-11-05T23:42:46.994Z,100053.20
2018-11-05T23:45:16.415Z,100049.94
2018-11-05T23:47:44.888Z,100054.20
2018-11-05T23:50:13.550Z,100052.07
2018-11-05T23:52:42.096Z,100050.76
2018-11-05T23:55:11.122Z,100051.90
2018-11-05T23:57:39.503Z,100051.41
